createdAt,value
2017-10-24T00:00:00.989Z,784.77
2017-10-24T00:00:05.075Z,784.77
2017-10-24T00:00:09.036Z,784.71
2017-10-24T00:00:13.249Z,784.74
2017-10-24T00:00:17.325Z,784.74
2017-10-24T00:00:21.268Z,784.74
2017-10-24T00:00:25.489Z,784.76
2017-10-24T00:00:29.571Z,784.72
2017-10-24T00:00:33.649Z,784.74
2017-10-24T00:00:37.740Z,784.73
2017-10-24T00:00:41.946Z,784.78
2017-10-24T00:00:45.894Z,784.78
2017-10-24T00:00:50.375Z,784.78
2017-10-24T00:00:54.588Z,784.77
2017-10-24T00:00:58.534Z,784.77
2017-10-24T00:01:02.485Z,784.8
2017-10-24T00:01:06.422Z,784.74
2017-10-24T00:01:10.632Z,784.78
2017-10-24T00:01:14.587Z,784.79
2017-10-24T00:01:18.672Z,784.78
2017-10-24T00:01:22.624Z,784.8
2017-10-24T00:01:26.710Z,784.81
2017-10-24T00:01:30.923Z,784.82
2017-10-24T00:01:35.011Z,784.81
2017-10-24T00:01:38.959Z,784.8
2017-10-24T00:01:43.064Z,784.81
2017-10-24T00:01:46.888Z,784.83
2017-10-24T00:01:50.973Z,784.82
2017-10-24T00:01:54.927Z,784.86
2017-10-24T00:01:59.263Z,784.84
2017-10-24T00:02:03.343Z,784.88
2017-10-24T00:02:07.554Z,784.83
2017-10-24T00:02:11.639Z,784.83
2017-10-24T00:02:15.857Z,784.83
2017-10-24T00:02:19.953Z,784.81
2017-10-24T00:02:24.031Z,784.82
2017-10-24T00:02:28.240Z,784.81
2017-10-24T00:02:32.320Z,784.82
2017-10-24T00:02:36.419Z,784.83
2017-10-24T00:02:40.625Z,784.87
2017-10-24T00:02:44.441Z,784.85
2017-10-24T00:02:48.659Z,784.88
2017-10-24T00:02:52.737Z,784.88
2017-10-24T00:02:56.961Z,784.85
2017-10-24T00:03:01.307Z,784.82
2017-10-24T00:03:05.363Z,784.85
2017-10-24T00:03:09.310Z,784.89
2017-10-24T00:03:13.267Z,784.86
2017-10-24T00:03:17.216Z,784.87
2017-10-24T00:03:21.161Z,784.9
2017-10-24T00:03:25.110Z,784.91
2017-10-24T00:03:29.191Z,784.82
2017-10-24T00:03:33.143Z,784.88
2017-10-24T00:03:37.094Z,784.88
2017-10-24T00:03:41.312Z,784.9
2017-10-24T00:03:45.528Z,784.89
2017-10-24T00:03:49.619Z,784.89
2017-10-24T00:03:53.572Z,784.91
2017-10-24T00:03:57.785Z,784.9
2017-10-24T00:04:01.997Z,784.93
2017-10-24T00:04:06.222Z,784.92
2017-10-24T00:04:10.163Z,784.9
2017-10-24T00:04:14.235Z,784.93
2017-10-24T00:04:18.317Z,784.93
2017-10-24T00:04:22.400Z,784.92
2017-10-24T00:04:26.221Z,784.91
2017-10-24T00:04:30.169Z,784.93
2017-10-24T00:04:34.124Z,784.94
2017-10-24T00:04:38.064Z,784.93
2017-10-24T00:04:42.006Z,784.93
2017-10-24T00:04:46.363Z,784.93
2017-10-24T00:04:50.575Z,784.94
2017-10-24T00:04:54.520Z,784.94
2017-10-24T00:04:58.466Z,784.95
2017-10-24T00:05:02.515Z,784.97
2017-10-24T00:05:06.857Z,784.99
2017-10-24T00:05:10.943Z,785.01
2017-10-24T00:05:14.884Z,784.97
2017-10-24T00:05:18.961Z,784.97
2017-10-24T00:05:23.044Z,784.98
2017-10-24T00:05:27.143Z,784.99
2017-10-24T00:05:31.227Z,784.96
2017-10-24T00:05:35.175Z,784.98
2017-10-24T00:05:39.540Z,784.98
2017-10-24T00:05:43.748Z,784.94
2017-10-24T00:05:47.826Z,784.93
2017-10-24T00:05:51.907Z,784.98
2017-10-24T00:05:56.242Z,784.97
2017-10-24T00:06:00.185Z,784.99
2017-10-24T00:06:04.726Z,785.02
2017-10-24T00:06:08.938Z,785.02
2017-10-24T00:06:12.881Z,785.01
2017-10-24T00:06:16.952Z,785
2017-10-24T00:06:21.045Z,785.01
2017-10-24T00:06:25.117Z,785.02
2017-10-24T00:06:29.081Z,785.03
2017-10-24T00:06:32.906Z,785.01
2017-10-24T00:06:36.713Z,785
2017-10-24T00:06:40.788Z,784.98
2017-10-24T00:06:44.732Z,785
2017-10-24T00:06:49.071Z,785.05
2017-10-24T00:06:53.016Z,785.03
2017-10-24T00:06:57.108Z,785.05
2017-10-24T00:07:01.191Z,785.02
2017-10-24T00:07:05.579Z,785.07
2017-10-24T00:07:09.546Z,785.06
2017-10-24T00:07:13.628Z,785.04
2017-10-24T00:07:17.706Z,785.05
2017-10-24T00:07:21.916Z,785.05
2017-10-24T00:07:25.730Z,785.07
2017-10-24T00:07:30.082Z,785.06
2017-10-24T00:07:33.895Z,785.02
2017-10-24T00:07:37.720Z,785.06
2017-10-24T00:07:41.803Z,785.08
2017-10-24T00:07:45.884Z,785.07
2017-10-24T00:07:49.839Z,785.07
2017-10-24T00:07:53.793Z,785.05
2017-10-24T00:07:57.745Z,785.02
2017-10-24T00:08:01.929Z,785.03
2017-10-24T00:08:06.285Z,785.06
2017-10-24T00:08:10.496Z,785.09
2017-10-24T00:08:14.459Z,785.08
2017-10-24T00:08:18.408Z,785.11
2017-10-24T00:08:22.631Z,785.11
2017-10-24T00:08:26.550Z,785.11
2017-10-24T00:08:30.763Z,785.08
2017-10-24T00:08:35.122Z,785.11
2017-10-24T00:08:39.327Z,785.09
2017-10-24T00:08:43.411Z,785.09
2017-10-24T00:08:47.507Z,785.11
2017-10-24T00:08:51.584Z,785.09
2017-10-24T00:08:55.403Z,785.02
2017-10-24T00:08:59.498Z,785.05
2017-10-24T00:09:03.723Z,785.07
2017-10-24T00:09:07.666Z,785.09
2017-10-24T00:09:11.745Z,785.12
2017-10-24T00:09:15.822Z,785.1
2017-10-24T00:09:19.895Z,785.11
2017-10-24T00:09:23.982Z,785.13
2017-10-24T00:09:27.797Z,785.15
2017-10-24T00:09:31.883Z,785.11
2017-10-24T00:09:35.702Z,785.13
2017-10-24T00:09:39.787Z,785.1
2017-10-24T00:09:43.864Z,785.13
2017-10-24T00:09:47.808Z,785.14
2017-10-24T00:09:52.019Z,785.14
2017-10-24T00:09:55.975Z,785.15
2017-10-24T00:10:00.058Z,785.14
2017-10-24T00:10:04.158Z,785.16
2017-10-24T00:10:08.375Z,785.17
2017-10-24T00:10:12.455Z,785.16
2017-10-24T00:10:16.435Z,785.15
2017-10-24T00:10:20.384Z,785.17
2017-10-24T00:10:24.332Z,785.15
2017-10-24T00:10:28.307Z,785.15
2017-10-24T00:10:32.231Z,785.13
2017-10-24T00:10:36.045Z,785.11
2017-10-24T00:10:40.003Z,785.11
2017-10-24T00:10:44.209Z,785.12
2017-10-24T00:10:48.290Z,785.1
2017-10-24T00:10:52.103Z,785.1
2017-10-24T00:10:56.184Z,785.1
2017-10-24T00:11:00.132Z,785.16
2017-10-24T00:11:04.217Z,785.13
2017-10-24T00:11:08.305Z,785.1
2017-10-24T00:11:12.370Z,785.13
2017-10-24T00:11:16.451Z,785.14
2017-10-24T00:11:20.803Z,785.21
2017-10-24T00:11:24.892Z,785.18
2017-10-24T00:11:28.834Z,785.19
2017-10-24T00:11:32.795Z,785.19
2017-10-24T00:11:36.745Z,785.2
2017-10-24T00:11:40.821Z,785.17
2017-10-24T00:11:44.767Z,785.18
2017-10-24T00:11:48.855Z,785.16
2017-10-24T00:11:52.803Z,785.15
2017-10-24T00:11:56.752Z,785.17
2017-10-24T00:12:00.693Z,785.21
2017-10-24T00:12:04.641Z,785.19
2017-10-24T00:12:08.584Z,785.18
2017-10-24T00:12:12.530Z,785.21
2017-10-24T00:12:16.744Z,785.21
2017-10-24T00:12:20.945Z,785.18
2017-10-24T00:12:24.895Z,785.23
2017-10-24T00:12:28.989Z,785.21
2017-10-24T00:12:33.070Z,785.2
2017-10-24T00:12:37.021Z,785.2
2017-10-24T00:12:40.971Z,785.18
2017-10-24T00:12:44.918Z,785.21
2017-10-24T00:12:48.870Z,785.21
2017-10-24T00:12:52.954Z,785.2
2017-10-24T00:12:57.165Z,785.2
2017-10-24T00:13:01.129Z,785.2
2017-10-24T00:13:05.076Z,785.2
2017-10-24T00:13:09.425Z,785.21
2017-10-24T00:13:13.241Z,785.23
2017-10-24T00:13:17.321Z,785.19
2017-10-24T00:13:21.405Z,785.2
2017-10-24T00:13:25.085Z,785.21
2017-10-24T00:13:29.027Z,785.21
2017-10-24T00:13:33.103Z,785.24
2017-10-24T00:13:36.921Z,785.26
2017-10-24T00:13:40.895Z,785.27
2017-10-24T00:13:44.841Z,785.22
2017-10-24T00:13:48.657Z,785.21
2017-10-24T00:13:52.467Z,785.21
2017-10-24T00:13:56.681Z,785.27
2017-10-24T00:14:00.493Z,785.21
2017-10-24T00:14:04.802Z,785.24
2017-10-24T00:14:08.753Z,785.24
2017-10-24T00:14:12.970Z,785.24
2017-10-24T00:14:17.180Z,785.26
2017-10-24T00:14:20.994Z,785.24
2017-10-24T00:14:24.807Z,785.23
2017-10-24T00:14:28.887Z,785.21
2017-10-24T00:14:32.830Z,785.23
2017-10-24T00:14:36.641Z,785.26
2017-10-24T00:14:40.596Z,785.23
2017-10-24T00:14:44.537Z,785.25
2017-10-24T00:14:48.611Z,785.25
2017-10-24T00:14:52.950Z,785.25
2017-10-24T00:14:57.034Z,785.29
2017-10-24T00:15:00.985Z,785.28
2017-10-24T00:15:05.173Z,785.27
2017-10-24T00:15:09.272Z,785.28
2017-10-24T00:15:13.212Z,785.27
2017-10-24T00:15:17.285Z,785.26
2017-10-24T00:15:21.502Z,785.28
2017-10-24T00:15:25.329Z,785.28
2017-10-24T00:15:29.665Z,785.29
2017-10-24T00:15:33.743Z,785.3
2017-10-24T00:15:37.827Z,785.3
2017-10-24T00:15:42.041Z,785.26
2017-10-24T00:15:45.988Z,785.27
2017-10-24T00:15:49.936Z,785.31
2017-10-24T00:15:54.177Z,785.31
2017-10-24T00:15:58.122Z,785.3
2017-10-24T00:16:02.352Z,785.3
2017-10-24T00:16:06.170Z,785.34
2017-10-24T00:16:10.114Z,785.33
2017-10-24T00:16:14.195Z,785.29
2017-10-24T00:16:18.011Z,785.28
2017-10-24T00:16:21.959Z,785.31
2017-10-24T00:16:25.899Z,785.34
2017-10-24T00:16:29.844Z,785.32
2017-10-24T00:16:33.534Z,785.32
2017-10-24T00:16:37.609Z,785.33
2017-10-24T00:16:41.423Z,785.31
2017-10-24T00:16:45.503Z,785.34
2017-10-24T00:16:49.180Z,785.35
2017-10-24T00:16:53.123Z,785.33
2017-10-24T00:16:57.201Z,785.34
2017-10-24T00:17:01.272Z,785.32
2017-10-24T00:17:05.475Z,785.32
2017-10-24T00:17:09.430Z,785.33
2017-10-24T00:17:13.380Z,785.34
2017-10-24T00:17:17.584Z,785.32
2017-10-24T00:17:21.790Z,785.31
2017-10-24T00:17:25.736Z,785.31
2017-10-24T00:17:29.941Z,785.33
2017-10-24T00:17:34.019Z,785.29
2017-10-24T00:17:38.106Z,785.31
2017-10-24T00:17:42.178Z,785.32
2017-10-24T00:17:45.993Z,785.31
2017-10-24T00:17:49.968Z,785.32
2017-10-24T00:17:53.910Z,785.32
2017-10-24T00:17:57.595Z,785.34
2017-10-24T00:18:01.407Z,785.32
2017-10-24T00:18:05.226Z,785.34
2017-10-24T00:18:09.301Z,785.33
2017-10-24T00:18:13.115Z,785.33
2017-10-24T00:18:17.064Z,785.29
2017-10-24T00:18:21.149Z,785.32
2017-10-24T00:18:25.228Z,785.31
2017-10-24T00:18:29.307Z,785.32
2017-10-24T00:18:33.247Z,785.31
2017-10-24T00:18:37.087Z,785.32
2017-10-24T00:18:41.159Z,785.27
2017-10-24T00:18:45.111Z,785.28
2017-10-24T00:18:49.192Z,785.25
2017-10-24T00:18:52.999Z,785.26
2017-10-24T00:18:56.812Z,785.25
2017-10-24T00:19:01.038Z,785.3
2017-10-24T00:19:05.217Z,785.3
2017-10-24T00:19:09.294Z,785.3
2017-10-24T00:19:13.383Z,785.29
2017-10-24T00:19:17.467Z,785.31
2017-10-24T00:19:21.811Z,785.31
2017-10-24T00:19:25.760Z,785.31
2017-10-24T00:19:29.706Z,785.33
2017-10-24T00:19:33.651Z,785.33
2017-10-24T00:19:37.479Z,785.33
2017-10-24T00:19:41.558Z,785.3
2017-10-24T00:19:45.500Z,785.29
2017-10-24T00:19:49.448Z,785.31
2017-10-24T00:19:53.257Z,785.31
2017-10-24T00:19:57.202Z,785.29
2017-10-24T00:20:00.889Z,785.32
2017-10-24T00:20:04.962Z,785.34
2017-10-24T00:20:09.043Z,785.33
2017-10-24T00:20:12.856Z,785.33
2017-10-24T00:20:16.673Z,785.33
2017-10-24T00:20:20.761Z,785.31
2017-10-24T00:20:24.990Z,785.32
2017-10-24T00:20:28.804Z,785.31
2017-10-24T00:20:32.627Z,785.33
2017-10-24T00:20:36.579Z,785.31
2017-10-24T00:20:40.529Z,785.3
2017-10-24T00:20:44.613Z,785.29
2017-10-24T00:20:48.559Z,785.34
2017-10-24T00:20:52.511Z,785.31
2017-10-24T00:20:56.593Z,785.33
2017-10-24T00:21:00.541Z,785.3
2017-10-24T00:21:04.456Z,785.31
2017-10-24T00:21:08.668Z,785.35
2017-10-24T00:21:12.612Z,785.32
2017-10-24T00:21:16.569Z,785.34
2017-10-24T00:21:20.653Z,785.33
2017-10-24T00:21:24.600Z,785.3
2017-10-24T00:21:28.676Z,785.31
2017-10-24T00:21:32.362Z,785.23
2017-10-24T00:21:36.572Z,785.3
2017-10-24T00:21:40.646Z,785.32
2017-10-24T00:21:44.880Z,785.3
2017-10-24T00:21:48.954Z,785.34
2017-10-24T00:21:53.155Z,785.3
2017-10-24T00:21:56.839Z,785.32
2017-10-24T00:22:00.793Z,785.31
2017-10-24T00:22:05.095Z,785.32
2017-10-24T00:22:09.184Z,785.35
2017-10-24T00:22:13.267Z,785.34
2017-10-24T00:22:17.484Z,785.32
2017-10-24T00:22:21.697Z,785.33
2017-10-24T00:22:25.774Z,785.31
2017-10-24T00:22:29.850Z,785.32
2017-10-24T00:22:34.056Z,785.33
2017-10-24T00:22:38.398Z,785.33
2017-10-24T00:22:42.345Z,785.31
2017-10-24T00:22:46.029Z,785.34
2017-10-24T00:22:50.105Z,785.31
2017-10-24T00:22:54.186Z,785.33
2017-10-24T00:22:58.002Z,785.32
2017-10-24T00:23:01.826Z,785.31
2017-10-24T00:23:05.514Z,785.3
2017-10-24T00:23:09.592Z,785.29
2017-10-24T00:23:13.413Z,785.29
2017-10-24T00:23:17.233Z,785.3
2017-10-24T00:23:21.178Z,785.3
2017-10-24T00:23:25.515Z,785.32
2017-10-24T00:23:29.467Z,785.3
2017-10-24T00:23:33.819Z,785.29
2017-10-24T00:23:37.909Z,785.3
2017-10-24T00:23:41.593Z,785.32
2017-10-24T00:23:45.670Z,785.3
2017-10-24T00:23:49.489Z,785.34
2017-10-24T00:23:53.569Z,785.31
2017-10-24T00:23:57.652Z,785.33
2017-10-24T00:24:02.013Z,785.32
2017-10-24T00:24:05.961Z,785.33
2017-10-24T00:24:10.042Z,785.31
2017-10-24T00:24:14.255Z,785.32
2017-10-24T00:24:18.331Z,785.28
2017-10-24T00:24:22.407Z,785.3
2017-10-24T00:24:26.487Z,785.3
2017-10-24T00:24:30.298Z,785.28
2017-10-24T00:24:34.381Z,785.32
2017-10-24T00:24:38.465Z,785.29
2017-10-24T00:24:42.409Z,785.33
2017-10-24T00:24:46.747Z,785.31
2017-10-24T00:24:50.834Z,785.31
2017-10-24T00:24:54.791Z,785.3
2017-10-24T00:24:58.995Z,785.3
2017-10-24T00:25:03.078Z,785.3
2017-10-24T00:25:07.293Z,785.27
2017-10-24T00:25:11.380Z,785.3
2017-10-24T00:25:15.454Z,785.28
2017-10-24T00:25:19.406Z,785.31
2017-10-24T00:25:23.491Z,785.26
2017-10-24T00:25:27.434Z,785.26
2017-10-24T00:25:31.377Z,785.23
2017-10-24T00:25:35.456Z,785.25
2017-10-24T00:25:39.401Z,785.31
2017-10-24T00:25:43.612Z,785.28
2017-10-24T00:25:47.561Z,785.31
2017-10-24T00:25:52.040Z,785.29
2017-10-24T00:25:55.987Z,785.29
2017-10-24T00:26:00.071Z,785.29
2017-10-24T00:26:04.012Z,785.3
2017-10-24T00:26:07.959Z,785.31
2017-10-24T00:26:11.905Z,785.28
2017-10-24T00:26:15.719Z,785.3
2017-10-24T00:26:19.667Z,785.3
2017-10-24T00:26:23.746Z,785.28
2017-10-24T00:26:27.561Z,785.3
2017-10-24T00:26:31.516Z,785.27
2017-10-24T00:26:35.458Z,785.3
2017-10-24T00:26:39.408Z,785.32
2017-10-24T00:26:43.362Z,785.31
2017-10-24T00:26:47.583Z,785.28
2017-10-24T00:26:51.398Z,785.27
2017-10-24T00:26:55.601Z,785.27
2017-10-24T00:26:59.681Z,785.27
2017-10-24T00:27:03.926Z,785.28
2017-10-24T00:27:07.873Z,785.29
2017-10-24T00:27:11.952Z,785.27
2017-10-24T00:27:16.159Z,785.24
2017-10-24T00:27:20.106Z,785.26
2017-10-24T00:27:24.048Z,785.26
2017-10-24T00:27:28.252Z,785.25
2017-10-24T00:27:32.345Z,785.2
2017-10-24T00:27:36.285Z,785.25
2017-10-24T00:27:40.493Z,785.27
2017-10-24T00:27:44.713Z,785.26
2017-10-24T00:27:48.542Z,785.25
2017-10-24T00:27:52.750Z,785.26
2017-10-24T00:27:57.109Z,785.2
2017-10-24T00:28:00.924Z,785.24
2017-10-24T00:28:05.133Z,785.25
2017-10-24T00:28:09.212Z,785.25
2017-10-24T00:28:13.291Z,785.25
2017-10-24T00:28:17.368Z,785.21
2017-10-24T00:28:21.449Z,785.19
2017-10-24T00:28:25.416Z,785.2
2017-10-24T00:28:29.362Z,785.14
2017-10-24T00:28:33.572Z,785.18
2017-10-24T00:28:37.522Z,785.18
2017-10-24T00:28:41.335Z,785.21
2017-10-24T00:28:45.284Z,785.23
2017-10-24T00:28:49.360Z,785.21
2017-10-24T00:28:53.579Z,785.19
2017-10-24T00:28:57.651Z,785.2
2017-10-24T00:29:01.745Z,785.21
2017-10-24T00:29:05.694Z,785.19
2017-10-24T00:29:09.506Z,785.21
2017-10-24T00:29:13.576Z,785.2
2017-10-24T00:29:17.524Z,785.22
2017-10-24T00:29:21.469Z,785.18
2017-10-24T00:29:25.416Z,785.2
2017-10-24T00:29:29.365Z,785.13
2017-10-24T00:29:33.585Z,785.19
2017-10-24T00:29:37.800Z,785.16
2017-10-24T00:29:41.874Z,785.14
2017-10-24T00:29:45.552Z,785.14
2017-10-24T00:29:49.368Z,785.17
2017-10-24T00:29:53.323Z,785.15
2017-10-24T00:29:57.531Z,785.14
2017-10-24T00:30:01.477Z,785.13
2017-10-24T00:30:05.738Z,785.15
2017-10-24T00:30:09.421Z,785.13
2017-10-24T00:30:13.239Z,785.14
2017-10-24T00:30:17.200Z,785.1
2017-10-24T00:30:21.146Z,785.14
2017-10-24T00:30:25.362Z,785.1
2017-10-24T00:30:29.171Z,785.09
2017-10-24T00:30:33.123Z,785.12
2017-10-24T00:30:36.943Z,785.11
2017-10-24T00:30:40.765Z,785.09
2017-10-24T00:30:44.577Z,785.11
2017-10-24T00:30:48.790Z,785.09
2017-10-24T00:30:52.868Z,785.09
2017-10-24T00:30:57.199Z,785.09
2017-10-24T00:31:01.539Z,785.1
2017-10-24T00:31:05.618Z,785.12
2017-10-24T00:31:09.451Z,785.09
2017-10-24T00:31:13.531Z,785.05
2017-10-24T00:31:17.212Z,785.06
2017-10-24T00:31:21.160Z,785.05
2017-10-24T00:31:25.490Z,785.06
2017-10-24T00:31:29.695Z,785.07
2017-10-24T00:31:33.918Z,785.06
2017-10-24T00:31:37.880Z,785.06
2017-10-24T00:31:42.091Z,785.1
2017-10-24T00:31:46.174Z,785.06
2017-10-24T00:31:49.980Z,785.07
2017-10-24T00:31:53.930Z,785.06
2017-10-24T00:31:57.876Z,785.06
2017-10-24T00:32:01.953Z,785.05
2017-10-24T00:32:05.904Z,785.06
2017-10-24T00:32:09.719Z,785.05
2017-10-24T00:32:13.807Z,785.08
2017-10-24T00:32:17.482Z,785.05
2017-10-24T00:32:21.559Z,785.04
2017-10-24T00:32:25.378Z,785.02
2017-10-24T00:32:29.860Z,785.03
2017-10-24T00:32:33.942Z,785.02
2017-10-24T00:32:37.759Z,785.01
2017-10-24T00:32:41.843Z,785
2017-10-24T00:32:45.924Z,785.03
2017-10-24T00:32:50.392Z,785.02
2017-10-24T00:32:54.202Z,785.02
2017-10-24T00:32:58.169Z,785.04
2017-10-24T00:33:01.999Z,785.01
2017-10-24T00:33:06.213Z,785.03
2017-10-24T00:33:10.032Z,785.01
2017-10-24T00:33:14.256Z,785.01
2017-10-24T00:33:18.482Z,785.01
2017-10-24T00:33:22.450Z,784.99
2017-10-24T00:33:26.395Z,785.02
2017-10-24T00:33:30.212Z,785.02
2017-10-24T00:33:34.161Z,784.97
2017-10-24T00:33:38.108Z,785.02
2017-10-24T00:33:42.182Z,785
2017-10-24T00:33:46.390Z,785.04
2017-10-24T00:33:50.206Z,785.01
2017-10-24T00:33:54.153Z,785.01
2017-10-24T00:33:57.965Z,785.03
2017-10-24T00:34:02.183Z,785
2017-10-24T00:34:06.413Z,784.99
2017-10-24T00:34:10.478Z,784.98
2017-10-24T00:34:14.557Z,785.01
2017-10-24T00:34:18.642Z,785.03
2017-10-24T00:34:22.719Z,785.01
2017-10-24T00:34:26.797Z,785.01
2017-10-24T00:34:30.484Z,784.99
2017-10-24T00:34:34.584Z,785
2017-10-24T00:34:38.792Z,784.96
2017-10-24T00:34:42.871Z,784.97
2017-10-24T00:34:46.819Z,785
2017-10-24T00:34:50.633Z,785.02
2017-10-24T00:34:54.845Z,784.99
2017-10-24T00:34:58.784Z,784.99
2017-10-24T00:35:02.880Z,785
2017-10-24T00:35:06.830Z,784.99
2017-10-24T00:35:10.513Z,785.01
2017-10-24T00:35:14.596Z,784.99
2017-10-24T00:35:18.543Z,784.95
2017-10-24T00:35:22.628Z,784.95
2017-10-24T00:35:26.965Z,784.95
2017-10-24T00:35:31.039Z,784.93
2017-10-24T00:35:34.983Z,784.98
2017-10-24T00:35:38.934Z,784.93
2017-10-24T00:35:42.878Z,784.94
2017-10-24T00:35:46.953Z,785
2017-10-24T00:35:50.773Z,784.99
2017-10-24T00:35:54.853Z,784.99
2017-10-24T00:35:58.801Z,784.98
2017-10-24T00:36:02.756Z,784.98
2017-10-24T00:36:06.445Z,785
2017-10-24T00:36:10.249Z,784.96
2017-10-24T00:36:14.588Z,784.97
2017-10-24T00:36:18.416Z,784.99
2017-10-24T00:36:22.626Z,784.98
2017-10-24T00:36:26.716Z,784.96
2017-10-24T00:36:30.542Z,784.98
2017-10-24T00:36:34.227Z,785
2017-10-24T00:36:38.585Z,784.99
2017-10-24T00:36:42.528Z,785
2017-10-24T00:36:46.474Z,784.97
2017-10-24T00:36:50.585Z,784.99
2017-10-24T00:36:54.791Z,784.96
2017-10-24T00:36:58.869Z,784.98
2017-10-24T00:37:03.086Z,785
2017-10-24T00:37:06.899Z,785
2017-10-24T00:37:10.973Z,785.01
2017-10-24T00:37:14.799Z,784.95
2017-10-24T00:37:18.617Z,784.97
2017-10-24T00:37:22.950Z,784.96
2017-10-24T00:37:26.893Z,784.96
2017-10-24T00:37:30.841Z,784.97
2017-10-24T00:37:34.928Z,785.01
2017-10-24T00:37:39.133Z,784.94
2017-10-24T00:37:43.083Z,784.93
2017-10-24T00:37:47.031Z,784.92
2017-10-24T00:37:50.845Z,784.97
2017-10-24T00:37:55.191Z,784.99
2017-10-24T00:37:59.009Z,784.96
2017-10-24T00:38:03.284Z,784.98
2017-10-24T00:38:07.229Z,785
2017-10-24T00:38:11.451Z,784.98
2017-10-24T00:38:15.665Z,784.99
2017-10-24T00:38:19.755Z,784.98
2017-10-24T00:38:23.704Z,784.96
2017-10-24T00:38:27.920Z,785
2017-10-24T00:38:32.261Z,784.99
2017-10-24T00:38:36.211Z,784.96
2017-10-24T00:38:40.020Z,784.98
2017-10-24T00:38:44.237Z,784.97
2017-10-24T00:38:48.314Z,784.98
2017-10-24T00:38:52.132Z,784.96
2017-10-24T00:38:56.075Z,784.97
2017-10-24T00:39:00.023Z,784.96
2017-10-24T00:39:04.402Z,784.97
2017-10-24T00:39:08.352Z,784.93
2017-10-24T00:39:12.565Z,784.92
2017-10-24T00:39:16.517Z,784.96
2017-10-24T00:39:20.478Z,784.97
2017-10-24T00:39:24.952Z,784.96
2017-10-24T00:39:29.303Z,785.01
2017-10-24T00:39:33.380Z,784.97
2017-10-24T00:39:37.329Z,784.97
2017-10-24T00:39:41.404Z,784.99
2017-10-24T00:39:45.487Z,784.99
2017-10-24T00:39:49.694Z,784.99
2017-10-24T00:39:54.038Z,784.96
2017-10-24T00:39:57.862Z,784.95
2017-10-24T00:40:01.809Z,784.92
2017-10-24T00:40:06.020Z,784.94
2017-10-24T00:40:10.241Z,784.98
2017-10-24T00:40:14.065Z,784.96
2017-10-24T00:40:18.161Z,784.96
2017-10-24T00:40:22.252Z,784.96
2017-10-24T00:40:26.071Z,784.96
2017-10-24T00:40:30.155Z,784.95
2017-10-24T00:40:34.100Z,784.95
2017-10-24T00:40:38.047Z,784.95
2017-10-24T00:40:42.255Z,784.92
2017-10-24T00:40:46.204Z,784.95
2017-10-24T00:40:50.152Z,784.93
2017-10-24T00:40:54.266Z,784.96
2017-10-24T00:40:58.337Z,784.94
2017-10-24T00:41:02.811Z,784.94
2017-10-24T00:41:06.754Z,784.94
2017-10-24T00:41:10.700Z,784.93
2017-10-24T00:41:14.906Z,784.96
2017-10-24T00:41:18.730Z,784.95
2017-10-24T00:41:22.676Z,784.95
2017-10-24T00:41:26.634Z,784.94
2017-10-24T00:41:30.845Z,784.95
2017-10-24T00:41:34.660Z,784.96
2017-10-24T00:41:38.880Z,784.97
2017-10-24T00:41:42.851Z,784.94
2017-10-24T00:41:46.791Z,784.97
2017-10-24T00:41:50.997Z,784.98
2017-10-24T00:41:55.073Z,784.93
2017-10-24T00:41:59.146Z,784.92
2017-10-24T00:42:03.395Z,784.96
2017-10-24T00:42:07.349Z,784.95
2017-10-24T00:42:11.165Z,784.97
2017-10-24T00:42:15.237Z,784.95
2017-10-24T00:42:19.450Z,784.95
2017-10-24T00:42:23.264Z,784.95
2017-10-24T00:42:27.476Z,784.95
2017-10-24T00:42:31.814Z,784.92
2017-10-24T00:42:35.900Z,784.94
2017-10-24T00:42:40.111Z,784.87
2017-10-24T00:42:44.054Z,784.9
2017-10-24T00:42:48.145Z,784.91
2017-10-24T00:42:52.220Z,784.95
2017-10-24T00:42:56.172Z,784.94
2017-10-24T00:42:59.984Z,784.97
2017-10-24T00:43:04.421Z,784.94
2017-10-24T00:43:08.501Z,784.94
2017-10-24T00:43:12.188Z,784.94
2017-10-24T00:43:16.269Z,784.94
2017-10-24T00:43:20.372Z,784.92
2017-10-24T00:43:24.582Z,784.92
2017-10-24T00:43:28.401Z,784.96
2017-10-24T00:43:32.618Z,784.94
2017-10-24T00:43:36.562Z,784.91
2017-10-24T00:43:40.522Z,784.92
2017-10-24T00:43:44.638Z,784.9
2017-10-24T00:43:48.710Z,784.95
2017-10-24T00:43:52.657Z,784.92
2017-10-24T00:43:56.749Z,784.91
2017-10-24T00:44:00.560Z,784.91
2017-10-24T00:44:04.636Z,784.93
2017-10-24T00:44:08.717Z,784.94
2017-10-24T00:44:12.938Z,784.92
2017-10-24T00:44:17.015Z,784.91
2017-10-24T00:44:21.096Z,784.92
2017-10-24T00:44:25.174Z,784.9
2017-10-24T00:44:29.117Z,784.91
2017-10-24T00:44:32.946Z,784.92
2017-10-24T00:44:36.759Z,784.91
2017-10-24T00:44:40.962Z,784.9
2017-10-24T00:44:45.055Z,784.93
2017-10-24T00:44:48.862Z,784.88
2017-10-24T00:44:52.675Z,784.87
2017-10-24T00:44:56.883Z,784.93
2017-10-24T00:45:00.841Z,784.93
2017-10-24T00:45:05.185Z,784.91
2017-10-24T00:45:09.142Z,784.94
2017-10-24T00:45:13.350Z,784.89
2017-10-24T00:45:17.573Z,784.89
2017-10-24T00:45:21.519Z,784.89
2017-10-24T00:45:25.344Z,784.86
2017-10-24T00:45:29.421Z,784.87
2017-10-24T00:45:33.634Z,784.85
2017-10-24T00:45:37.583Z,784.87
2017-10-24T00:45:41.665Z,784.88
2017-10-24T00:45:45.882Z,784.87
2017-10-24T00:45:50.106Z,784.84
2017-10-24T00:45:54.447Z,784.87
2017-10-24T00:45:58.665Z,784.85
2017-10-24T00:46:02.610Z,784.88
2017-10-24T00:46:06.558Z,784.89
2017-10-24T00:46:10.524Z,784.86
2017-10-24T00:46:14.338Z,784.92
2017-10-24T00:46:18.156Z,784.91
2017-10-24T00:46:22.104Z,784.9
2017-10-24T00:46:26.052Z,784.9
2017-10-24T00:46:30.266Z,784.87
2017-10-24T00:46:34.078Z,784.88
2017-10-24T00:46:38.025Z,784.89
2017-10-24T00:46:42.267Z,784.89
2017-10-24T00:46:46.608Z,784.88
2017-10-24T00:46:50.685Z,784.88
2017-10-24T00:46:54.657Z,784.87
2017-10-24T00:46:58.466Z,784.87
2017-10-24T00:47:02.348Z,784.86
2017-10-24T00:47:06.695Z,784.85
2017-10-24T00:47:10.651Z,784.86
2017-10-24T00:47:14.734Z,784.84
2017-10-24T00:47:18.819Z,784.81
2017-10-24T00:47:22.629Z,784.84
2017-10-24T00:47:26.445Z,784.79
2017-10-24T00:47:30.267Z,784.82
2017-10-24T00:47:34.214Z,784.81
2017-10-24T00:47:38.166Z,784.82
2017-10-24T00:47:41.986Z,784.84
2017-10-24T00:47:45.802Z,784.81
2017-10-24T00:47:49.746Z,784.84
2017-10-24T00:47:53.427Z,784.76
2017-10-24T00:47:57.656Z,784.81
2017-10-24T00:48:01.900Z,784.76
2017-10-24T00:48:05.718Z,784.77
2017-10-24T00:48:09.670Z,784.75
2017-10-24T00:48:13.634Z,784.78
2017-10-24T00:48:17.588Z,784.8
2017-10-24T00:48:21.537Z,784.82
2017-10-24T00:48:25.217Z,784.78
2017-10-24T00:48:29.289Z,784.82
2017-10-24T00:48:33.365Z,784.79
2017-10-24T00:48:37.187Z,784.79
2017-10-24T00:48:40.868Z,784.78
2017-10-24T00:48:45.204Z,784.81
2017-10-24T00:48:49.153Z,784.77
2017-10-24T00:48:53.102Z,784.78
2017-10-24T00:48:56.917Z,784.76
2017-10-24T00:49:00.599Z,784.77
2017-10-24T00:49:04.920Z,784.8
2017-10-24T00:49:08.735Z,784.75
2017-10-24T00:49:12.819Z,784.75
2017-10-24T00:49:16.896Z,784.76
2017-10-24T00:49:20.712Z,784.74
2017-10-24T00:49:24.399Z,784.73
2017-10-24T00:49:28.488Z,784.77
2017-10-24T00:49:32.831Z,784.75
2017-10-24T00:49:36.641Z,784.73
2017-10-24T00:49:40.846Z,784.75
2017-10-24T00:49:44.662Z,784.7
2017-10-24T00:49:48.743Z,784.69
2017-10-24T00:49:53.085Z,784.76
2017-10-24T00:49:57.164Z,784.74
2017-10-24T00:50:01.241Z,784.72
2017-10-24T00:50:05.059Z,784.73
2017-10-24T00:50:09.137Z,784.73
2017-10-24T00:50:13.213Z,784.74
2017-10-24T00:50:17.432Z,784.71
2017-10-24T00:50:21.520Z,784.75
2017-10-24T00:50:25.738Z,784.72
2017-10-24T00:50:29.728Z,784.74
2017-10-24T00:50:33.810Z,784.7